createdAt,value
2023-01-23T00:01:25.593Z,41.32
2023-01-23T00:03:54.508Z,42.10
2023-01-23T00:06:22.477Z,41.45
2023-01-23T00:08:50.559Z,42.19
2023-01-23T00:11:24.743Z,41.88
2023-01-23T00:13:53.172Z,42.47
2023-01-23T00:16:22.534Z,41.44
2023-01-23T00:18:50.711Z,41.91
2023-01-23T00:21:22.138Z,42.14
2023-01-23T00:23:51.048Z,42.28
2023-01-23T00:26:20.779Z,42.14
2023-01-23T00:28:48.918Z,42.96
2023-01-23T00:31:18.919Z,42.81
2023-01-23T00:33:46.976Z,42.93
2023-01-23T00:36:15.813Z,42.76
2023-01-23T00:38:43.739Z,42.85
2023-01-23T00:41:11.477Z,42.91
2023-01-23T00:43:39.352Z,42.92
2023-01-23T00:46:07.322Z,42.42
2023-01-23T00:48:35.175Z,42.80
2023-01-23T00:51:03.168Z,42.85
2023-01-23T00:53:30.966Z,42.94
2023-01-23T00:55:58.940Z,42.40
2023-01-23T00:58:27.497Z,42.57
2023-01-23T01:00:55.549Z,42.33
2023-01-23T01:03:25.573Z,42.27
2023-01-23T01:05:53.639Z,42.38
2023-01-23T01:08:21.576Z,41.88
2023-01-23T01:10:49.398Z,42.68
2023-01-23T01:13:21.616Z,42.16
2023-01-23T01:15:53.988Z,42.53
2023-01-23T01:18:22.246Z,42.20
2023-01-23T01:20:50.072Z,42.22
2023-01-23T01:23:17.989Z,42.17
2023-01-23T01:25:45.909Z,41.81
2023-01-23T01:28:13.822Z,41.65
2023-01-23T01:30:42.190Z,41.97
2023-01-23T01:33:11.461Z,41.58
2023-01-23T01:35:42.616Z,41.75
2023-01-23T01:38:10.525Z,41.51
2023-01-23T01:40:38.489Z,41.35
2023-01-23T01:43:10.470Z,40.78
2023-01-23T01:46:16.036Z,40.55
2023-01-23T01:48:47.391Z,40.37
2023-01-23T01:51:38.677Z,40.62
2023-01-23T01:54:14.666Z,40.23
2023-01-23T01:56:53.116Z,40.33
2023-01-23T01:59:21.149Z,40.29
2023-01-23T02:01:50.603Z,40.16
2023-01-23T02:04:18.719Z,41.03
2023-01-23T02:06:47.527Z,40.90
2023-01-23T02:09:24.052Z,40.68
2023-01-23T02:11:52.117Z,40.79
2023-01-23T02:14:20.801Z,40.83
2023-01-23T02:16:52.482Z,41.68
2023-01-23T02:19:27.827Z,41.66
2023-01-23T02:22:00.131Z,41.60
2023-01-23T02:24:33.747Z,41.54
2023-01-23T02:27:01.613Z,41.96
2023-01-23T02:29:46.434Z,42.54
2023-01-23T02:32:15.150Z,42.67
2023-01-23T02:34:44.344Z,42.51
2023-01-23T02:37:12.350Z,42.59
2023-01-23T02:39:40.595Z,42.39
2023-01-23T02:42:10.882Z,43.05
2023-01-23T02:44:46.739Z,42.70
2023-01-23T02:47:17.145Z,42.42
2023-01-23T02:49:45.261Z,42.45
2023-01-23T02:52:13.065Z,43.11
2023-01-23T02:54:41.180Z,43.10
2023-01-23T02:57:10.790Z,43.29
2023-01-23T02:59:57.956Z,43.68
2023-01-23T03:02:27.499Z,43.63
2023-01-23T03:04:55.488Z,42.99
2023-01-23T03:07:23.341Z,43.00
2023-01-23T03:09:51.407Z,43.03
2023-01-23T03:12:19.385Z,43.06
2023-01-23T03:14:48.914Z,42.53
2023-01-23T03:17:16.810Z,42.92
2023-01-23T03:19:44.459Z,42.66
2023-01-23T03:22:12.413Z,42.80
2023-01-23T03:24:40.367Z,43.11
2023-01-23T03:27:08.322Z,43.89
2023-01-23T03:30:01.882Z,44.17
2023-01-23T03:32:31.368Z,43.94
2023-01-23T03:34:59.806Z,43.11
2023-01-23T03:37:27.733Z,43.55
2023-01-23T03:40:15.711Z,42.91
2023-01-23T03:42:43.968Z,42.47
2023-01-23T03:45:14.976Z,43.22
2023-01-23T03:47:43.231Z,43.83
2023-01-23T03:50:12.014Z,42.58
2023-01-23T03:52:40.969Z,43.21
2023-01-23T03:55:09.761Z,43.64
2023-01-23T03:57:39.747Z,42.91
2023-01-23T04:00:33.733Z,43.15
2023-01-23T04:03:05.834Z,43.30
2023-01-23T04:05:33.728Z,43.56
2023-01-23T04:08:02.716Z,43.18
2023-01-23T04:10:31.479Z,44.00
2023-01-23T04:13:04.873Z,44.07
2023-01-23T04:15:33.899Z,44.05
2023-01-23T04:18:05.331Z,44.05
2023-01-23T04:20:33.703Z,43.96
2023-01-23T04:23:01.573Z,43.85
2023-01-23T04:25:30.933Z,43.40
2023-01-23T04:27:58.732Z,43.53
2023-01-23T04:30:26.753Z,42.62
2023-01-23T04:32:55.344Z,42.18
2023-01-23T04:35:23.818Z,42.08
2023-01-23T04:37:53.033Z,42.34
2023-01-23T04:40:21.997Z,41.92
2023-01-23T04:42:54.587Z,42.12
2023-01-23T04:45:35.244Z,42.24
2023-01-23T04:48:21.325Z,42.18
2023-01-23T04:50:50.029Z,42.37
2023-01-23T04:53:18.004Z,42.63
2023-01-23T04:55:50.145Z,42.96
2023-01-23T04:58:19.592Z,43.16
2023-01-23T05:00:47.607Z,43.07
2023-01-23T05:03:17.007Z,42.00
2023-01-23T05:05:48.349Z,42.26
2023-01-23T05:08:16.369Z,41.90
2023-01-23T05:10:50.342Z,42.76
2023-01-23T05:13:20.211Z,43.81
2023-01-23T05:15:48.347Z,44.07
2023-01-23T05:18:17.475Z,44.58
2023-01-23T05:20:46.878Z,43.85
2023-01-23T05:23:14.712Z,44.00
2023-01-23T05:25:50.389Z,44.75
2023-01-23T05:28:18.213Z,43.82
2023-01-23T05:30:51.154Z,44.67
2023-01-23T05:33:42.056Z,43.98
2023-01-23T05:36:09.940Z,43.11
2023-01-23T05:38:37.803Z,43.15
2023-01-23T05:41:05.866Z,43.57
2023-01-23T05:43:39.674Z,43.13
2023-01-23T05:46:07.633Z,43.65
2023-01-23T05:48:50.524Z,43.44
2023-01-23T05:51:21.056Z,41.94
2023-01-23T05:53:49.662Z,41.94
2023-01-23T05:56:18.693Z,41.35
2023-01-23T05:59:10.257Z,41.80
2023-01-23T06:01:49.424Z,41.94
2023-01-23T06:04:36.311Z,42.70
2023-01-23T06:07:18.960Z,42.96
2023-01-23T06:09:48.669Z,43.30
2023-01-23T06:12:16.521Z,43.50
2023-01-23T06:14:44.368Z,43.77
2023-01-23T06:17:12.625Z,43.37
2023-01-23T06:19:40.470Z,43.78
2023-01-23T06:22:09.296Z,43.13
2023-01-23T06:24:55.947Z,43.88
2023-01-23T06:27:24.551Z,44.97
2023-01-23T06:29:53.182Z,45.84
2023-01-23T06:32:21.599Z,46.16
2023-01-23T06:34:50.071Z,46.22
2023-01-23T06:37:17.789Z,44.64
2023-01-23T06:39:46.483Z,44.47
2023-01-23T06:42:16.406Z,44.80
2023-01-23T06:44:48.695Z,44.03
2023-01-23T06:47:17.088Z,44.74
2023-01-23T06:49:48.894Z,42.70
2023-01-23T06:52:16.833Z,42.78
2023-01-23T06:54:47.532Z,41.99
2023-01-23T06:57:15.466Z,41.78
2023-01-23T06:59:44.672Z,43.04
2023-01-23T07:02:15.225Z,41.86
2023-01-23T07:04:48.858Z,41.19
2023-01-23T07:07:16.709Z,41.37
2023-01-23T07:09:46.292Z,41.93
2023-01-23T07:12:18.778Z,42.20
2023-01-23T07:14:47.300Z,41.90
2023-01-23T07:17:20.273Z,42.83
2023-01-23T07:19:48.136Z,42.84
2023-01-23T07:22:20.087Z,42.65
2023-01-23T07:24:48.336Z,43.10
2023-01-23T07:27:16.289Z,44.28
2023-01-23T07:29:44.094Z,43.84
2023-01-23T07:32:11.904Z,43.73
2023-01-23T07:34:39.972Z,42.92
2023-01-23T07:37:07.814Z,42.20
2023-01-23T07:39:35.678Z,42.27
2023-01-23T07:42:03.394Z,41.31
2023-01-23T07:44:31.294Z,42.24
2023-01-23T07:46:59.109Z,42.01
2023-01-23T07:49:26.970Z,42.00
2023-01-23T07:51:55.071Z,42.38
2023-01-23T07:54:22.977Z,43.13
2023-01-23T07:56:51.628Z,42.07
2023-01-23T07:59:19.356Z,43.49
2023-01-23T08:01:47.242Z,42.13
2023-01-23T08:04:15.206Z,42.01
2023-01-23T08:06:43.050Z,41.79
2023-01-23T08:09:10.991Z,41.81
2023-01-23T08:11:38.929Z,42.19
2023-01-23T08:14:06.941Z,42.23
2023-01-23T08:16:34.854Z,42.02
2023-01-23T08:19:02.701Z,41.71
2023-01-23T08:21:30.636Z,42.24
2023-01-23T08:23:58.296Z,41.76
2023-01-23T08:26:26.155Z,41.57
2023-01-23T08:28:54.125Z,41.38
2023-01-23T08:31:22.094Z,41.95
2023-01-23T08:33:50.053Z,42.11
2023-01-23T08:36:17.887Z,41.99
2023-01-23T08:38:45.602Z,41.69
2023-01-23T08:41:13.474Z,42.08
2023-01-23T08:43:44.708Z,42.41
2023-01-23T08:46:12.710Z,43.62
2023-01-23T08:48:40.593Z,42.78
2023-01-23T08:51:10.087Z,43.03
2023-01-23T08:53:37.907Z,42.50
2023-01-23T08:56:16.343Z,42.98
2023-01-23T08:58:44.942Z,43.93
2023-01-23T09:01:14.189Z,43.19
2023-01-23T09:03:41.948Z,43.56
2023-01-23T09:06:11.703Z,44.04
2023-01-23T09:08:39.538Z,44.12
2023-01-23T09:11:08.803Z,43.84
2023-01-23T09:13:36.841Z,44.21
2023-01-23T09:16:05.274Z,43.56
2023-01-23T09:18:33.094Z,44.24
2023-01-23T09:21:01.028Z,43.87
2023-01-23T09:23:28.753Z,43.17
2023-01-23T09:25:56.627Z,43.24
2023-01-23T09:28:24.422Z,44.08
2023-01-23T09:30:52.379Z,44.72
2023-01-23T09:33:25.086Z,44.27
2023-01-23T09:35:53.257Z,44.05
2023-01-23T09:38:21.118Z,44.43
2023-01-23T09:40:58.080Z,44.03
2023-01-23T09:43:32.076Z,43.45
2023-01-23T09:46:02.506Z,43.54
2023-01-23T09:48:44.185Z,43.70
2023-01-23T09:51:34.554Z,43.70
2023-01-23T09:54:26.822Z,44.52
2023-01-23T09:56:55.820Z,45.13
2023-01-23T09:59:32.362Z,43.65
2023-01-23T10:02:00.200Z,43.56
2023-01-23T10:04:27.979Z,44.48
2023-01-23T10:07:10.861Z,44.99
2023-01-23T10:09:50.506Z,44.76
2023-01-23T10:12:41.404Z,45.13
2023-01-23T10:15:30.307Z,45.07
2023-01-23T10:18:25.938Z,44.26
2023-01-23T10:21:03.403Z,43.66
2023-01-23T10:23:55.765Z,44.96
2023-01-23T10:26:26.540Z,44.93
2023-01-23T10:28:57.064Z,45.45
2023-01-23T10:31:29.414Z,44.74
2023-01-23T10:34:06.935Z,44.75
2023-01-23T10:36:54.024Z,44.44
2023-01-23T10:39:32.251Z,45.04
2023-01-23T10:42:02.704Z,44.95
2023-01-23T10:44:31.919Z,45.35
2023-01-23T10:47:03.870Z,44.50
2023-01-23T10:49:39.531Z,44.92
2023-01-23T10:52:10.557Z,45.71
2023-01-23T10:54:46.387Z,45.25
2023-01-23T10:57:14.066Z,46.20
2023-01-23T11:00:04.706Z,44.88
2023-01-23T11:02:41.189Z,45.20
2023-01-23T11:05:50.422Z,44.98
2023-01-23T11:08:31.527Z,45.73
2023-01-23T11:11:17.224Z,45.95
2023-01-23T11:13:46.229Z,45.82
2023-01-23T11:16:24.318Z,46.48
2023-01-23T11:18:52.047Z,45.81
2023-01-23T11:21:39.701Z,46.06
2023-01-23T11:24:38.607Z,45.82
2023-01-23T11:27:19.714Z,45.87
2023-01-23T11:29:53.468Z,45.59
2023-01-23T11:32:22.152Z,46.13
2023-01-23T11:34:57.602Z,45.93
2023-01-23T11:37:31.252Z,46.37
2023-01-23T11:40:02.592Z,45.70
2023-01-23T11:42:30.306Z,46.48
2023-01-23T11:45:01.384Z,45.99
2023-01-23T11:47:35.173Z,45.64
2023-01-23T11:50:18.159Z,45.42
2023-01-23T11:53:03.549Z,46.13
2023-01-23T11:55:55.740Z,45.44
2023-01-23T11:58:49.080Z,45.56
2023-01-23T12:01:49.293Z,44.95
2023-01-23T12:04:46.678Z,45.36
2023-01-23T12:07:24.315Z,45.08
2023-01-23T12:10:18.549Z,45.20
2023-01-23T12:12:59.215Z,45.66
2023-01-23T12:15:44.876Z,45.62
2023-01-23T12:18:32.315Z,45.95
2023-01-23T12:21:12.415Z,46.66
2023-01-23T12:23:52.160Z,45.50
2023-01-23T12:26:22.821Z,45.82
2023-01-23T12:29:22.759Z,45.52
2023-01-23T12:32:09.287Z,45.95
2023-01-23T12:35:09.406Z,44.56
2023-01-23T12:37:59.392Z,44.99
2023-01-23T12:40:39.336Z,44.84
2023-01-23T12:43:32.777Z,45.53
2023-01-23T12:46:12.152Z,45.19
2023-01-23T12:48:47.829Z,44.33
2023-01-23T12:51:19.627Z,45.80
2023-01-23T12:53:47.844Z,44.98
2023-01-23T12:56:18.408Z,45.28
2023-01-23T12:58:55.583Z,44.70
2023-01-23T13:01:53.967Z,45.12
2023-01-23T13:04:28.011Z,45.48
2023-01-23T13:07:04.667Z,45.13
2023-01-23T13:10:03.107Z,44.87
2023-01-23T13:12:31.485Z,45.20
2023-01-23T13:15:22.591Z,44.24
2023-01-23T13:17:59.897Z,44.73
2023-01-23T13:21:18.143Z,45.71
2023-01-23T13:23:46.251Z,45.29
2023-01-23T13:26:16.969Z,44.96
2023-01-23T13:28:48.510Z,45.42
2023-01-23T13:31:47.552Z,45.73
2023-01-23T13:34:18.761Z,44.77
2023-01-23T13:36:47.603Z,45.01
2023-01-23T13:39:18.416Z,45.89
2023-01-23T13:41:47.304Z,45.25
2023-01-23T13:44:35.826Z,45.07
2023-01-23T14:24:53.537Z,47.04
2023-01-23T14:27:29.551Z,46.95
2023-01-23T14:30:05.573Z,46.77
2023-01-23T14:32:35.175Z,46.51
2023-01-23T14:35:03.255Z,46.56
2023-01-23T14:37:31.136Z,46.58
2023-01-23T14:40:01.929Z,46.59
2023-01-23T14:42:35.253Z,47.17
2023-01-23T14:45:03.253Z,46.87
2023-01-23T14:47:37.916Z,46.86
2023-01-23T14:50:23.855Z,47.34
2023-01-23T14:53:01.828Z,46.70
2023-01-23T14:55:30.737Z,46.99
2023-01-23T14:57:59.499Z,46.84
2023-01-23T15:00:27.407Z,47.20
2023-01-23T15:02:56.642Z,46.61
2023-01-23T15:05:28.534Z,46.26
2023-01-23T15:07:59.597Z,47.12
2023-01-23T15:10:31.392Z,47.38
2023-01-23T15:12:59.887Z,46.76
2023-01-23T15:15:27.543Z,46.70
2023-01-23T15:17:55.675Z,46.95
2023-01-23T15:20:41.494Z,46.50
2023-01-23T15:23:31.734Z,47.06
2023-01-23T15:26:18.269Z,47.31
2023-01-23T15:28:52.916Z,47.97
2023-01-23T15:31:41.183Z,48.09
2023-01-23T15:34:15.193Z,48.08
2023-01-23T15:37:08.751Z,47.75
2023-01-23T15:39:58.685Z,47.80
2023-01-23T15:42:31.574Z,47.63
2023-01-23T15:45:01.870Z,47.32
2023-01-23T15:47:32.061Z,47.52
2023-01-23T15:50:03.448Z,48.06
2023-01-23T15:52:45.977Z,47.28
2023-01-23T15:55:13.912Z,47.65
2023-01-23T15:57:43.622Z,47.48
2023-01-23T16:00:21.427Z,48.27
2023-01-23T16:02:56.211Z,48.42
2023-01-23T16:05:32.935Z,47.30
2023-01-23T16:08:03.833Z,47.06
2023-01-23T16:10:34.524Z,47.73
2023-01-23T16:13:02.635Z,48.12
2023-01-23T16:15:34.640Z,47.34
2023-01-23T16:18:04.930Z,47.13
2023-01-23T16:20:41.809Z,47.15
2023-01-23T16:23:20.901Z,47.55
2023-01-23T16:25:49.337Z,47.09
2023-01-23T16:28:22.465Z,47.09
2023-01-23T16:30:51.389Z,47.33
2023-01-23T16:33:19.714Z,47.27
2023-01-23T16:35:48.110Z,47.09
2023-01-23T16:38:26.920Z,46.68
2023-01-23T16:40:55.190Z,46.81
2023-01-23T16:43:23.633Z,47.34
2023-01-23T16:45:54.322Z,47.02
2023-01-23T16:48:27.600Z,47.36
2023-01-23T16:51:15.638Z,47.61
2023-01-23T16:53:44.882Z,47.99
2023-01-23T16:56:25.677Z,47.74
2023-01-23T16:58:53.567Z,47.22
2023-01-23T17:01:22.239Z,47.42
2023-01-23T17:04:10.369Z,46.92
2023-01-23T17:06:38.223Z,47.98
2023-01-23T17:09:05.923Z,48.25
2023-01-23T17:11:35.859Z,47.53
2023-01-23T17:14:06.209Z,48.12
2023-01-23T17:16:34.215Z,47.37
2023-01-23T17:19:03.394Z,47.98
2023-01-23T17:21:33.714Z,47.51
2023-01-23T17:24:01.683Z,47.75
2023-01-23T17:26:29.534Z,47.09
2023-01-23T17:28:57.464Z,47.95
2023-01-23T17:31:27.160Z,47.63
2023-01-23T17:33:56.100Z,47.13
2023-01-23T17:36:25.526Z,46.81
2023-01-23T17:38:58.093Z,47.66
2023-01-23T17:41:25.987Z,47.86
2023-01-23T17:43:53.804Z,46.80
2023-01-23T17:46:23.241Z,47.30
2023-01-23T17:48:51.170Z,46.12
2023-01-23T17:51:19.614Z,47.13
2023-01-23T17:53:47.870Z,46.35
2023-01-23T17:56:16.148Z,47.15
2023-01-23T17:58:43.996Z,46.94
2023-01-23T18:01:22.392Z,47.16
2023-01-23T18:03:51.180Z,47.19
2023-01-23T18:06:19.419Z,47.58
2023-01-23T18:08:47.294Z,48.17
2023-01-23T18:11:24.590Z,47.79
2023-01-23T18:14:21.721Z,48.06
2023-01-23T18:16:50.684Z,48.39
2023-01-23T18:19:20.055Z,48.07
2023-01-23T18:21:49.830Z,49.01
2023-01-23T18:24:25.551Z,49.26
2023-01-23T18:27:01.540Z,49.71
2023-01-23T18:29:54.558Z,49.63
2023-01-23T18:32:28.534Z,48.93
2023-01-23T18:35:00.394Z,49.08
2023-01-23T18:37:46.749Z,48.57
2023-01-23T18:40:21.820Z,48.97
2023-01-23T18:43:08.473Z,48.19
2023-01-23T18:45:36.618Z,47.99
2023-01-23T18:48:13.522Z,48.48
2023-01-23T18:51:13.654Z,48.58
2023-01-23T18:53:56.133Z,48.83
2023-01-23T18:56:39.541Z,49.13
2023-01-23T18:59:35.032Z,48.09
2023-01-23T19:02:15.088Z,47.75
2023-01-23T19:05:12.773Z,48.58
2023-01-23T19:07:40.893Z,47.73
2023-01-23T19:10:15.461Z,48.00
2023-01-23T19:13:06.644Z,47.40
2023-01-23T19:15:41.312Z,48.78
2023-01-23T19:18:11.991Z,48.48
2023-01-23T19:21:18.563Z,48.26
2023-01-23T19:23:56.272Z,47.50
2023-01-23T19:26:25.801Z,48.59
2023-01-23T19:28:54.493Z,48.11
2023-01-23T19:31:30.111Z,48.38
2023-01-23T19:33:59.133Z,48.25
2023-01-23T19:36:27.298Z,48.57
2023-01-23T19:39:01.195Z,48.63
2023-01-23T19:41:47.673Z,48.49
2023-01-23T19:44:19.035Z,48.58
2023-01-23T19:46:47.125Z,48.97
2023-01-23T19:49:14.898Z,48.73
2023-01-23T19:51:42.900Z,49.01
2023-01-23T19:54:12.894Z,48.26
2023-01-23T19:56:41.089Z,49.65
2023-01-23T19:59:08.903Z,49.15
2023-01-23T20:01:50.616Z,49.53
2023-01-23T20:04:22.447Z,49.32
2023-01-23T20:06:52.429Z,50.30
2023-01-23T20:09:20.615Z,49.80
2023-01-23T20:11:48.716Z,49.61
2023-01-23T20:14:16.647Z,49.43
2023-01-23T20:16:44.706Z,49.21
2023-01-23T20:19:15.954Z,48.61
2023-01-23T20:21:43.957Z,49.52
2023-01-23T20:24:12.174Z,49.48
2023-01-23T20:26:40.281Z,49.68
2023-01-23T20:29:11.600Z,49.87
2023-01-23T20:31:39.389Z,49.22
2023-01-23T20:34:07.829Z,49.41
2023-01-23T20:36:35.527Z,49.19
2023-01-23T20:39:04.146Z,49.77
2023-01-23T20:41:31.983Z,49.30
2023-01-23T20:43:59.848Z,49.16
2023-01-23T20:46:27.705Z,49.36
2023-01-23T20:48:55.992Z,48.35
2023-01-23T20:51:23.579Z,48.82
2023-01-23T20:53:51.406Z,48.89
2023-01-23T20:56:20.583Z,48.35
2023-01-23T20:59:08.107Z,48.52
2023-01-23T21:01:55.720Z,48.89
2023-01-23T21:04:27.040Z,48.69
2023-01-23T21:06:54.815Z,48.65
2023-01-23T21:09:23.640Z,48.54
2023-01-23T21:11:52.086Z,48.60
2023-01-23T21:14:20.127Z,48.79
2023-01-23T21:16:48.233Z,48.50
2023-01-23T21:19:16.129Z,48.42
2023-01-23T21:21:43.914Z,48.75
2023-01-23T21:24:11.884Z,48.47
2023-01-23T21:26:39.774Z,48.49
2023-01-23T21:29:07.749Z,49.06
2023-01-23T21:31:37.607Z,48.45
2023-01-23T21:34:08.134Z,49.02
2023-01-23T21:36:36.077Z,48.33
2023-01-23T21:39:04.723Z,48.92
2023-01-23T21:41:32.511Z,48.83
2023-01-23T21:44:00.257Z,48.11
2023-01-23T21:46:28.178Z,48.16
2023-01-23T21:48:56.025Z,47.39
2023-01-23T21:51:25.591Z,47.83
2023-01-23T21:53:53.421Z,48.04
2023-01-23T21:56:23.035Z,48.69
2023-01-23T21:58:50.976Z,48.68
2023-01-23T22:01:33.089Z,48.63
2023-01-23T22:04:02.693Z,48.25
2023-01-23T22:06:30.963Z,48.69
2023-01-23T22:08:58.714Z,49.04
2023-01-23T22:11:26.705Z,48.70
2023-01-23T22:13:55.044Z,48.26
2023-01-23T22:16:31.896Z,48.08
2023-01-23T22:19:08.155Z,48.02
2023-01-23T22:21:35.907Z,48.48
2023-01-23T22:24:03.977Z,48.01
2023-01-23T22:26:31.823Z,48.46
2023-01-23T22:28:59.627Z,48.00
2023-01-23T22:31:27.600Z,48.26
2023-01-23T22:33:55.996Z,47.93
2023-01-23T22:36:23.916Z,48.20
2023-01-23T22:38:52.640Z,47.50
2023-01-23T22:41:20.637Z,48.21
2023-01-23T22:43:55.499Z,48.53
2023-01-23T22:46:23.537Z,48.25
2023-01-23T22:48:51.835Z,48.44
2023-01-23T22:51:24.912Z,47.90
2023-01-23T22:53:53.612Z,48.11
2023-01-23T22:56:21.853Z,48.21
2023-01-23T22:58:50.377Z,48.01
2023-01-23T23:01:18.946Z,48.35
2023-01-23T23:03:47.138Z,48.41
2023-01-23T23:06:15.981Z,48.77
2023-01-23T23:08:47.126Z,48.83
2023-01-23T23:11:22.949Z,48.28
2023-01-23T23:13:50.952Z,48.92
2023-01-23T23:16:24.619Z,48.65
2023-01-23T23:18:53.930Z,48.72
2023-01-23T23:21:24.041Z,48.17
2023-01-23T23:23:52.705Z,49.09
2023-01-23T23:26:23.660Z,48.46
2023-01-23T23:28:52.696Z,48.95
2023-01-23T23:31:20.630Z,48.73
2023-01-23T23:33:48.434Z,49.13
2023-01-23T23:36:16.357Z,49.35
2023-01-23T23:38:44.245Z,48.79
2023-01-23T23:41:13.648Z,48.77
2023-01-23T23:43:41.499Z,49.30
2023-01-23T23:46:09.636Z,49.11
2023-01-23T23:48:38.153Z,48.41
2023-01-23T23:51:07.892Z,48.39
2023-01-23T23:53:36.535Z,48.63
2023-01-23T23:56:05.134Z,48.68
2023-01-23T23:58:35.196Z,49.69
